메인 페이지
METAR-TAF:

METAR-TAF

공항 :

Corsicana Municipal Airport (C. David Campbell Field)

Corsicana, 텍사스, 미국

위도: 32-01-52N, 경도: 096-23-56W, 고도: 136m

현재 날씨관측

예보는 48분 전, 14:53시(UTC)에 발표되었습니다.
7kt
온도 23°C
습도 89%
기압 1017 hPa
시정: 9.7km
고도 500ft 상공 흐림
박무

METAR: KCRS 221453Z AUTO 17007KT 6SM BR OVC005 23/21 A3004 RMK AO2 SLP168 T02280211 53014

시각: 10:41 (15:41 UTC)


TAF: 누락

4,000개 이상의 공항 관측 자료 및 예보 (METAR 및 TAF 보고).

지도상에서 검색 가능한 기상관측소가 노란 점과 빨간 점으로 표시되어 있습니다.

기상관측소 명을 보려면 표시 위로 마우스를 이동하세요.

날씨 관측과 예보를 보려면 클릭하세요.

지도 변경 : 확대하려면 엑스 표시가 있는 녹색 버튼, 축소하려면 빼기 표시가 있는 녹색 버튼, 다음 페이지의 지도를 보려면 녹색 화살표를 클릭하세요.


METAR-TAF: